Observations for AUCKLAND INTL A, New Zealand (NZAA)

NZAA 230530Z AUTO 22010KT 9999 NCD 26/20 Q1014 TEMPO 6000 SHRA  
NZAA 230500Z AUTO 22010KT 9999 NCD 26/20 Q1014 TEMPO 6000 SHRA  
NZAA 230430Z AUTO 23011KT 9999 NCD 26/21 Q1014 TEMPO 4000 SHRA SCT020TCU
NZAA 230400Z AUTO 23010KT 9999 NCD 26/21 Q1014 TEMPO 4000 SHRA SCT020TCU
NZAA 230330Z AUTO 23004KT 180V260 9999 -RA SCT034/// SCT100/// 25/21 Q1014 TEMPO 4000 SHRA SCT020TCU
NZAA 230300Z AUTO 22006KT 7000 -RA FEW028/// SCT035/// BKN043/// 24/21 Q1014 TEMPO 4000 SHRA SCT020TCU  
NZAA 230230Z AUTO 20006KT 9999 SCT036/// BKN046/// 24/21 Q1015 TEMPO 4000 SHRA SCT020TCU
NZAA 230200Z AUTO 19008KT 160V230 9999 BKN033/// 26/22 Q1014 TEMPO 4000 SHRA
NZAA 230130Z AUTO 15003KT 9999 FEW021/// SCT033/// 25/21 Q1014 TEMPO 4000 SHRA  
NZAA 230100Z AUTO 02003KT 9999 -RA FEW022/// BKN045/// OVC060/// 25/22 Q1015 TEMPO 4000 SHRA
NZAA 230030Z AUTO 05003KT 9999 OVC022/// 24/20 Q1015 TEMPO 4000 SHRA
NZAA 230000Z AUTO 02007KT 340V050 9999 FEW017/// SCT024/// 24/20 Q1015 TEMPO 4000 SHRA  
NZAA 222330Z AUTO 23004KT 190V270 9999 BKN040/// 25/20 Q1015 NOSIG  
NZAA 222300Z AUTO 23005KT 170V260 9999 SCT041/// BKN070/// 24/21 Q1015 NOSIG
NZAA 222230Z AUTO 22007KT 9999 BKN016/// BKN021/// 24/21 Q1015 NOSIG
NZAA 222200Z AUTO 13002KT 9999 FEW042/// SCT075/// 26/21 Q1015 NOSIG
NZAA 222130Z AUTO 12003KT 9999 FEW017/// SCT042/// BKN080/// 25/20 Q1016 NOSIG  
NZAA 222100Z AUTO 34001KT 9999 SCT015/// BKN060/// BKN080/// 24/20 Q1016 NOSIG  
NZAA 222030Z AUTO 05003KT 9999 FEW012/// SCT017/// BKN060/// 23/20 Q1016 NOSIG  
NZAA 222000Z AUTO 08005KT 050V110 9999 BKN009/// BKN055/// BKN100/// 23/21 Q1016 BECMG BKN018   
NZAA 221930Z AUTO 08003KT 9999 FEW008/// BKN046/// OVC060/// 22/21 Q1016 NOSIG  
NZAA 221900Z AUTO 09002KT 9999 FEW018/// BKN049/// OVC060/// 22/21 Q1015 NOSIG  
NZAA 221830Z AUTO 04004KT 9999 FEW019/// OVC055/// 21/21 Q1015 NOSIG
NZAA 221800Z AUTO 03003KT 9999 SCT014/// SCT019/// OVC055/// 21/20 Q1015 TEMPO BKN008   
NZAA 221730Z AUTO 07002KT 9999 OVC011/// 21/20 Q1015 BECMG FEW012 TEMPO BKN008  
NZAA 221700Z AUTO 00000KT 9999 OVC014/// 21/20 Q1015 BECMG FEW008 TEMPO 6000 RA BKN008 SCT020TCU
NZAA 221630Z AUTO 05002KT 9999 BKN014/// 21/20 Q1015 BECMG FEW008 TEMPO 6000 RA BKN008 SCT020TCU
NZAA 221600Z AUTO 03002KT 9999 SCT011/// BKN055/// OVC085/// 21/20 Q1015 TEMPO 6000 RA BKN008 SCT020TCU 
NZAA 221530Z AUTO 04003KT 9999 BKN055/// 21/20 Q1015 TEMPO 6000 RA BKN008 SCT020TCU 
NZAA 221500Z AUTO 02003KT 9999 FEW060/// 21/20 Q1014 TEMPO 6000 RA BKN008 SCT020TCU 
NZAA 221430Z AUTO 04003KT 9999 FEW009/// BKN014/// BKN060/// 21/20 Q1015 TEMPO 6000 RA BKN008 SCT020TCU 
NZAA 221400Z AUTO 34001KT 9999 SCT009/// 21/20 Q1015 TEMPO 6000 RA BKN008 SCT020TCU 
NZAA 221330Z AUTO 02004KT 9999 SCT010/// 21/21 Q1015 TEMPO 6000 RA BKN008 SCT020TCU 
NZAA 221300Z AUTO 36004KT 320V040 9999 BKN009/// BKN028/// 22/21 Q1016 BECMG FEW008 BKN018 TEMPO 6000 RA BKN008 SCT020TCU   
NZAA 221230Z AUTO 03003KT 9999 BKN009/// 21/21 Q1015 BECMG FEW008 BKN018 TEMPO 6000 RA BKN008 SCT020TCU 
NZAA 221200Z AUTO 03004KT 340V060 9999 FEW007/// SCT026/// 22/21 Q1015 TEMPO 6000 RA BKN008 SCT020TCU   
NZAA 221130Z AUTO 36005KT 330V040 9999 SCT007/// BKN030/// 22/21 Q1016 TEMPO 6000 RA BKN008 SCT020TCU   
NZAA 221100Z AUTO 02003KT 9999 FEW008/// BKN048/// 22/21 Q1016 TEMPO 6000 RA SCT020TCU  
NZAA 221030Z AUTO 02004KT 340V050 9999 BKN039/// BKN050/// 22/21 Q1016 TEMPO 6000 RA SCT020TCU  
NZAA 221000Z AUTO 01005KT 9999 BKN039/// 22/21 Q1016 TEMPO 6000 RA SCT020TCU
NZAA 220930Z AUTO 02005KT 350V080 9999 FEW007/// SCT020/// BKN045/// 22/21 Q1015 TEMPO 6000 RA SCT020TCU
NZAA 220900Z AUTO 01005KT 340V040 9999 BKN018/// 22/21 Q1015 TEMPO 6000 RA SCT020TCU
NZAA 220830Z AUTO 01005KT 350V090 9999 BKN019/// OVC080/// 22/21 Q1015 TEMPO 6000 RA SCT020TCU  
NZAA 220800Z AUTO 04005KT 9999 BKN080/// 22/21 Q1015 TEMPO 6000 RA SCT020TCU
NZAA 220730Z AUTO 03004KT 350V060 9999 -RA SCT017/// BKN095/// 22/21 Q1015 TEMPO 6000 RA SCT020TCU  
NZAA 220700Z AUTO 02005KT 280V050 9999 -DZ BKN012/// BKN090/// 22/21 Q1015 REDZ TEMPO 6000 RA SCT020TCU 
NZAA 220630Z AUTO 03005KT 350V060 9999 DZ SCT008/// BKN049/// BKN095/// 22/22 Q1014 TEMPO 6000 RA BKN012 SCT020TCU  
NZAA 220600Z AUTO 03007KT 360V060 9999 -RA BKN008/// 22/22 Q1014 BECMG SCT012 TEMPO 6000 RA SCT020TCU   
NZAA 220530Z AUTO 02008KT 9999 DZ SCT008/// BKN100/// 23/21 Q1014 TEMPO 6000 RA SCT020CB
NZAA 220500Z AUTO 03009KT 9999 DZ FEW030/// 23/22 Q1015 TEMPO 6000 RA SCT020CB